Main page
METAR-TAF:

METAR-TAF

Airports :

Dakar, Senegal

Léopold Sédar Senghor International Airport

latitude: 14-44N, longitude: 017-30W, elevation: 27 m

Current weather observation

The report was made 34 minutes ago, at 22:00 UTC
Wind 12 kt from the North
Temperature 22°C
Humidity 78%
Pressure 1013 hPa
Visibility 10 km or more
no clouds below 1500 m and no cumulonimbus

METAR: GOOY 272200Z 01012KT CAVOK 22/18 Q1013 NOSIG

Time: 22:34 (22:34 UTC)

Forecast

The report was made 5 hours and 4 minutes ago, at 17:30 UTC
Forecast valid from 27 at 18 UTC to 28 at 24 UTC
Wind 15 kt from the North
Visibility 10 km or more
no clouds below 1500 m and no cumulonimbus

TAF: GOOY 271730Z 2718/2824 35015KT CAVOK

Weather observations and forecasts of more than 4000 airports (METAR and TAF reports).

The available stations are represented by yellow and red dots on the map.

Hover mouse over dot to see the name of the station.

Then click to see weather observations and forecasts.

To change the map : click on the green buttons with a black cross to zoom in, on the green button with a dash to zoom out, or on the green arrows for adjacent maps.


METAR-TAF: